Time;durP1;ratioP1;P1;durP2;ratioP2;P2;SDS_P1;SDS_P2;PMS_P1;PMS_P2;Temp;Humidity;BMP_temperature;BMP_pressure;BME280_temperature;BME280_humidity;BME280_pressure;Samples;Min_cycle;Max_cycle;Signal;HPM_P1;HPM_P2
2021/04/07 00:01:59;;;;;;;6.75;4.50;;;;;;;;;;5010659;28;20030;-71
2021/04/07 00:04:25;;;;;;;7.13;4.50;;;;;;;;;;5010729;28;20030;-74
2021/04/07 00:06:53;;;;;;;7.43;4.82;;;;;;;;;;5010600;28;20030;-73
2021/04/07 00:09:19;;;;;;;6.88;4.05;;;;;;;;;;5010366;28;20034;-73
2021/04/07 00:11:45;;;;;;;8.00;4.38;;;;;;;;;;5010388;28;20434;-73
2021/04/07 00:14:11;;;;;;;7.32;5.20;;;;;;;;;;5011962;28;20045;-74
2021/04/07 00:16:37;;;;;;;9.60;5.68;;;;;;;;;;5014318;28;20026;-74
2021/04/07 00:19:06;;;;;;;8.93;5.20;;;;;;;;;;5014404;28;20478;-71
2021/04/07 00:21:32;;;;;;;7.65;5.75;;;;;;;;;;5014249;28;20025;-75
2021/04/07 00:23:58;;;;;;;7.53;5.30;;;;;;;;;;5014018;28;20029;-71
2021/04/07 00:26:24;;;;;;;8.18;6.07;;;;;;;;;;5162310;23;20536;-74
2021/04/07 00:28:50;;;;;;;7.90;4.63;;;;;;;;;;4976656;28;20573;-73
2021/04/07 00:31:16;;;;;;;8.38;5.50;;;;;;;;;;4994355;28;20025;-70
2021/04/07 00:33:42;;;;;;;7.07;4.57;;;;;;;;;;5002875;23;20540;-71
2021/04/07 00:36:08;;;;;;;8.57;5.40;;;;;;;;;;4994114;28;20367;-72
2021/04/07 00:38:34;;;;;;;8.10;4.78;;;;;;;;;;4994125;28;20026;-71
2021/04/07 00:41:01;;;;;;;6.82;4.80;;;;;;;;;;4994242;28;20027;-74
2021/04/07 00:43:27;;;;;;;7.90;5.28;;;;;;;;;;4994337;28;20139;-71
2021/04/07 00:45:53;;;;;;;7.38;4.70;;;;;;;;;;4994179;28;20027;-73
2021/04/07 00:48:19;;;;;;;7.18;4.80;;;;;;;;;;4990517;28;20030;-73
2021/04/07 00:50:45;;;;;;;9.00;4.10;;;;;;;;;;4982003;28;20511;-74
2021/04/07 00:53:11;;;;;;;5.47;3.75;;;;;;;;;;4978498;28;20360;-74
2021/04/07 00:55:39;;;;;;;6.97;4.40;;;;;;;;;;4974525;28;20450;-73
2021/04/07 00:58:05;;;;;;;8.35;5.15;;;;;;;;;;4974610;28;20030;-75
2021/04/07 01:00:32;;;;;;;8.35;5.05;;;;;;;;;;4974567;28;20022;-73
2021/04/07 01:02:59;;;;;;;8.93;5.68;;;;;;;;;;4974403;28;20042;-75
2021/04/07 01:05:26;;;;;;;10.35;7.28;;;;;;;;;;4973028;28;20483;-72
2021/04/07 01:07:52;;;;;;;10.98;6.68;;;;;;;;;;4973257;28;20796;-73
2021/04/07 01:10:18;;;;;;;10.18;7.00;;;;;;;;;;4974303;28;20031;-73
2021/04/07 01:12:44;;;;;;;8.32;6.20;;;;;;;;;;4976219;28;20023;-73
2021/04/07 01:15:12;;;;;;;8.82;6.15;;;;;;;;;;4974352;28;20030;-74
2021/04/07 01:17:38;;;;;;;7.60;5.50;;;;;;;;;;4974203;28;20505;-72
2021/04/07 01:20:08;;;;;;;9.73;5.72;;;;;;;;;;4972414;28;20039;-74
2021/04/07 01:22:36;;;;;;;7.63;5.30;;;;;;;;;;4974063;28;20027;-74
2021/04/07 01:25:03;;;;;;;6.82;4.80;;;;;;;;;;4971876;28;20027;-74
2021/04/07 01:27:29;;;;;;;6.75;4.28;;;;;;;;;;4972680;28;20499;-74
2021/04/07 01:29:55;;;;;;;6.47;4.47;;;;;;;;;;4973946;28;20038;-73
2021/04/07 01:32:21;;;;;;;5.45;4.13;;;;;;;;;;4973544;28;20098;-73
2021/04/07 01:34:47;;;;;;;5.47;3.97;;;;;;;;;;4973598;28;20121;-73
2021/04/07 01:37:13;;;;;;;5.68;4.18;;;;;;;;;;4973899;28;20086;-74
2021/04/07 01:39:40;;;;;;;6.22;4.28;;;;;;;;;;4973625;28;20098;-73
2021/04/07 01:42:06;;;;;;;6.57;4.63;;;;;;;;;;4973948;28;20063;-72
2021/04/07 01:44:32;;;;;;;5.70;4.57;;;;;;;;;;4973528;28;20081;-72
2021/04/07 01:46:59;;;;;;;6.25;4.68;;;;;;;;;;4973432;28;20138;-73
2021/04/07 01:49:25;;;;;;;6.93;5.13;;;;;;;;;;4973525;28;20396;-72
2021/04/07 01:51:51;;;;;;;7.93;5.50;;;;;;;;;;4973214;28;20023;-73
2021/04/07 01:54:17;;;;;;;7.65;5.30;;;;;;;;;;4973823;28;20019;-72
2021/04/07 01:56:49;;;;;;;7.00;5.30;;;;;;;;;;4973455;28;20014;-74
2021/04/07 01:59:17;;;;;;;7.70;5.40;;;;;;;;;;4973405;28;20022;-73
2021/04/07 02:01:43;;;;;;;8.13;6.13;;;;;;;;;;4973428;28;20107;-71
2021/04/07 02:04:10;;;;;;;8.30;5.55;;;;;;;;;;4973673;28;20039;-73
2021/04/07 02:06:36;;;;;;;8.98;6.28;;;;;;;;;;4972943;28;20553;-74
2021/04/07 02:09:03;;;;;;;10.18;6.50;;;;;;;;;;4973275;28;20073;-73
2021/04/07 02:11:29;;;;;;;8.13;6.10;;;;;;;;;;4973271;28;20031;-73
2021/04/07 02:13:55;;;;;;;11.27;7.32;;;;;;;;;;4971875;28;20050;-74
2021/04/07 02:16:21;;;;;;;9.05;7.03;;;;;;;;;;4973164;28;20123;-73
2021/04/07 02:18:47;;;;;;;8.88;6.30;;;;;;;;;;4973107;28;20147;-71
2021/04/07 02:21:14;;;;;;;10.13;6.93;;;;;;;;;;4973039;28;20025;-72
2021/04/07 02:23:40;;;;;;;8.45;6.13;;;;;;;;;;4973085;28;20041;-75
2021/04/07 02:26:07;;;;;;;9.55;7.00;;;;;;;;;;4972891;28;20019;-73
2021/04/07 02:28:34;;;;;;;10.07;6.30;;;;;;;;;;4971530;28;20394;-73
2021/04/07 02:31:00;;;;;;;8.65;6.25;;;;;;;;;;4972863;28;20022;-73
2021/04/07 02:33:26;;;;;;;10.20;6.57;;;;;;;;;;4972690;28;20498;-74
2021/04/07 02:35:52;;;;;;;10.20;6.95;;;;;;;;;;4972975;28;20030;-72
2021/04/07 02:38:19;;;;;;;9.18;6.40;;;;;;;;;;4972508;28;20476;-73
2021/04/07 02:40:45;;;;;;;8.60;5.97;;;;;;;;;;4972523;28;20541;-73
2021/04/07 02:43:11;;;;;;;9.80;5.97;;;;;;;;;;4972798;28;20386;-71
2021/04/07 02:45:37;;;;;;;6.32;4.55;;;;;;;;;;4972275;28;20043;-73
2021/04/07 02:48:03;;;;;;;8.77;5.68;;;;;;;;;;4972509;28;20058;-73
2021/04/07 02:50:29;;;;;;;7.68;6.00;;;;;;;;;;4971164;28;20438;-72
2021/04/07 02:52:55;;;;;;;8.73;6.22;;;;;;;;;;4972604;28;20019;-72
2021/04/07 02:55:22;;;;;;;9.35;6.80;;;;;;;;;;4972847;28;20054;-72
2021/04/07 02:57:48;;;;;;;9.65;6.97;;;;;;;;;;4972472;28;20027;-75
2021/04/07 03:00:14;;;;;;;9.95;7.00;;;;;;;;;;4972441;28;20022;-73
2021/04/07 03:02:40;;;;;;;8.40;6.10;;;;;;;;;;4972380;28;20102;-72
2021/04/07 03:05:07;;;;;;;9.55;5.38;;;;;;;;;;4972246;28;20078;-72
2021/04/07 03:07:33;;;;;;;8.27;5.80;;;;;;;;;;4970623;28;20031;-74
2021/04/07 03:09:59;;;;;;;6.95;5.10;;;;;;;;;;4971959;28;20138;-74
2021/04/07 03:12:25;;;;;;;8.48;4.88;;;;;;;;;;4970820;28;20394;-71
2021/04/07 03:14:51;;;;;;;7.95;4.95;;;;;;;;;;4972263;28;20038;-72
2021/04/07 03:17:17;;;;;;;6.47;4.57;;;;;;;;;;4972097;28;20542;-74
2021/04/07 03:19:44;;;;;;;9.05;4.78;;;;;;;;;;4972215;28;20924;-72
2021/04/07 03:22:10;;;;;;;8.80;4.80;;;;;;;;;;4972170;28;20034;-72
2021/04/07 03:24:36;;;;;;;7.47;4.53;;;;;;;;;;4970855;28;20115;-72
2021/04/07 03:27:02;;;;;;;6.88;4.85;;;;;;;;;;4972179;28;20042;-70
2021/04/07 03:29:28;;;;;;;7.35;5.00;;;;;;;;;;4970543;28;20145;-70
2021/04/07 03:31:54;;;;;;;7.35;4.82;;;;;;;;;;4972342;28;20034;-72
2021/04/07 03:34:20;;;;;;;7.25;4.75;;;;;;;;;;4971711;28;20141;-72
2021/04/07 03:36:46;;;;;;;7.50;4.57;;;;;;;;;;4971808;28;20027;-70
2021/04/07 03:39:12;;;;;;;8.20;5.40;;;;;;;;;;4971807;28;20058;-73
2021/04/07 03:41:38;;;;;;;7.65;4.80;;;;;;;;;;4971992;28;20026;-73
2021/04/07 03:44:05;;;;;;;7.57;4.78;;;;;;;;;;4970300;28;20042;-73
2021/04/07 03:46:31;;;;;;;8.18;5.13;;;;;;;;;;4971860;28;20026;-73
2021/04/07 03:48:57;;;;;;;7.80;4.80;;;;;;;;;;4973429;28;20104;-73
2021/04/07 03:51:23;;;;;;;7.15;5.00;;;;;;;;;;4975892;28;20069;-73
2021/04/07 03:53:49;;;;;;;10.40;5.55;;;;;;;;;;4975708;28;20081;-72
2021/04/07 03:56:15;;;;;;;7.95;5.55;;;;;;;;;;4975700;28;20514;-71
2021/04/07 03:58:41;;;;;;;7.70;5.70;;;;;;;;;;4975796;28;20051;-72
2021/04/07 04:01:07;;;;;;;8.35;5.50;;;;;;;;;;4975598;28;20475;-71
2021/04/07 04:03:33;;;;;;;9.63;5.75;;;;;;;;;;4974242;28;20035;-73
2021/04/07 04:06:00;;;;;;;8.95;5.60;;;;;;;;;;4975437;28;20043;-70
2021/04/07 04:08:26;;;;;;;9.13;6.00;;;;;;;;;;4975540;28;20031;-71
2021/04/07 04:10:52;;;;;;;9.32;5.43;;;;;;;;;;4975638;28;20394;-71
2021/04/07 04:13:18;;;;;;;10.63;5.55;;;;;;;;;;4975274;28;20360;-70
2021/04/07 04:15:45;;;;;;;10.30;6.43;;;;;;;;;;4975354;28;20050;-72
2021/04/07 04:18:11;;;;;;;10.32;5.90;;;;;;;;;;4975572;28;20031;-74
2021/04/07 04:20:37;;;;;;;9.07;6.13;;;;;;;;;;4975392;28;20030;-75
2021/04/07 04:23:04;;;;;;;10.32;5.65;;;;;;;;;;4975202;28;20030;-72
2021/04/07 04:25:30;;;;;;;10.55;5.88;;;;;;;;;;4975261;28;20030;-73
2021/04/07 04:27:56;;;;;;;9.48;5.82;;;;;;;;;;4975299;28;20031;-72
2021/04/07 04:30:24;;;;;;;9.18;5.60;;;;;;;;;;4975052;28;20117;-71
2021/04/07 04:32:50;;;;;;;10.55;6.10;;;;;;;;;;4974629;28;20082;-71
2021/04/07 04:35:16;;;;;;;9.98;5.88;;;;;;;;;;4974875;28;20113;-72
2021/04/07 04:37:43;;;;;;;8.85;5.47;;;;;;;;;;4975041;28;20083;-70
2021/04/07 04:40:10;;;;;;;8.80;5.70;;;;;;;;;;4974778;28;20034;-71
2021/04/07 04:42:36;;;;;;;9.70;6.35;;;;;;;;;;4974877;28;20027;-72
2021/04/07 04:45:03;;;;;;;11.50;7.20;;;;;;;;;;4974776;28;20076;-73
2021/04/07 04:47:29;;;;;;;11.85;7.43;;;;;;;;;;4974522;28;20398;-71
2021/04/07 04:49:55;;;;;;;9.48;6.70;;;;;;;;;;4973379;28;20394;-72
2021/04/07 04:52:21;;;;;;;11.70;6.40;;;;;;;;;;4974290;28;20025;-71
2021/04/07 04:54:48;;;;;;;10.63;6.50;;;;;;;;;;4974509;28;20030;-72
2021/04/07 04:57:14;;;;;;;9.20;6.05;;;;;;;;;;4974556;28;20085;-71
2021/04/07 04:59:40;;;;;;;10.80;6.85;;;;;;;;;;4973580;28;20027;-72
2021/04/07 05:02:07;;;;;;;15.18;7.07;;;;;;;;;;4974010;28;20463;-71
2021/04/07 05:04:33;;;;;;;12.05;6.90;;;;;;;;;;4974492;28;20497;-71
2021/04/07 05:06:59;;;;;;;9.52;6.60;;;;;;;;;;4974053;28;20168;-72
2021/04/07 05:09:25;;;;;;;13.43;7.60;;;;;;;;;;4974381;28;20398;-72
2021/04/07 05:11:51;;;;;;;11.85;7.57;;;;;;;;;;4974263;28;20023;-70
2021/04/07 05:14:17;;;;;;;13.65;7.68;;;;;;;;;;4974065;28;20101;-70
2021/04/07 05:16:44;;;;;;;13.80;8.18;;;;;;;;;;4972786;28;20033;-70
2021/04/07 05:19:10;;;;;;;14.00;8.15;;;;;;;;;;4974195;28;20113;-73
2021/04/07 05:21:36;;;;;;;12.77;7.53;;;;;;;;;;4974096;28;20026;-73
2021/04/07 05:24:02;;;;;;;11.63;7.47;;;;;;;;;;4973755;28;20042;-70
2021/04/07 05:26:28;;;;;;;12.98;8.43;;;;;;;;;;4974025;28;20027;-75
2021/04/07 05:28:54;;;;;;;14.63;9.65;;;;;;;;;;4974117;28;20066;-72
2021/04/07 05:31:20;;;;;;;17.17;10.50;;;;;;;;;;4973531;28;20027;-71
2021/04/07 05:33:46;;;;;;;15.75;9.30;;;;;;;;;;4973559;28;20058;-70
2021/04/07 05:36:14;;;;;;;15.65;9.90;;;;;;;;;;4973480;28;20030;-72
2021/04/07 05:38:40;;;;;;;14.82;9.02;;;;;;;;;;4973312;28;20034;-72
2021/04/07 05:41:07;;;;;;;12.23;8.50;;;;;;;;;;4972386;28;20026;-72
2021/04/07 05:43:34;;;;;;;14.85;9.25;;;;;;;;;;4973247;28;20113;-71
2021/04/07 05:46:00;;;;;;;14.88;8.95;;;;;;;;;;4971983;28;20035;-72
2021/04/07 05:48:27;;;;;;;14.65;9.60;;;;;;;;;;4973406;28;20073;-72
2021/04/07 05:50:54;;;;;;;12.88;8.68;;;;;;;;;;4973380;28;20022;-71
2021/04/07 05:53:20;;;;;;;13.93;8.88;;;;;;;;;;4980529;28;20027;-71
2021/04/07 05:55:47;;;;;;;13.45;8.38;;;;;;;;;;4981535;28;20505;-71
2021/04/07 05:58:13;;;;;;;13.85;9.40;;;;;;;;;;4983083;28;20166;-70
2021/04/07 06:00:40;;;;;;;12.70;9.02;;;;;;;;;;4980210;28;20252;-71
2021/04/07 06:03:07;;;;;;;15.00;9.80;;;;;;;;;;4981718;28;20035;-73
2021/04/07 06:05:34;;;;;;;14.85;9.45;;;;;;;;;;4983284;28;20033;-72
2021/04/07 06:08:00;;;;;;;15.30;9.63;;;;;;;;;;4980134;28;20413;-69
2021/04/07 06:10:27;;;;;;;12.65;9.13;;;;;;;;;;4981149;28;20485;-69
2021/04/07 06:12:57;;;;;;;16.30;9.60;;;;;;;;;;4981886;28;20122;-68
2021/04/07 06:15:23;;;;;;;14.93;10.00;;;;;;;;;;4980739;28;20557;-71
2021/04/07 06:20:22;;;;;;;16.45;10.75;;;;;;;;;;4982645;28;20044;-68
2021/04/07 06:22:48;;;;;;;15.70;9.75;;;;;;;;;;4988682;28;20027;-66
2021/04/07 06:25:14;;;;;;;14.27;9.82;;;;;;;;;;4980965;28;20074;-68
2021/04/07 06:27:40;;;;;;;18.83;11.57;;;;;;;;;;4980673;28;20431;-69
2021/04/07 06:30:07;;;;;;;19.30;12.30;;;;;;;;;;4973679;28;20039;-68
2021/04/07 06:32:34;;;;;;;17.60;10.50;;;;;;;;;;4979487;28;20104;-68
2021/04/07 06:35:00;;;;;;;19.73;12.05;;;;;;;;;;4974946;28;20045;-68
2021/04/07 06:37:26;;;;;;;19.55;10.60;;;;;;;;;;4978017;28;20037;-68
2021/04/07 06:39:52;;;;;;;16.45;10.68;;;;;;;;;;4981152;28;20086;-67
2021/04/07 06:42:18;;;;;;;15.57;8.68;;;;;;;;;;4985922;28;20030;-69
2021/04/07 06:44:44;;;;;;;14.07;8.77;;;;;;;;;;4960568;28;20113;-66
2021/04/07 06:47:12;;;;;;;16.50;9.05;;;;;;;;;;4982511;28;20033;-70
2021/04/07 06:49:43;;;;;;;15.52;8.85;;;;;;;;;;4984585;28;20592;-69
2021/04/07 06:52:17;;;;;;;13.48;9.30;;;;;;;;;;4977040;28;20131;-70
2021/04/07 06:54:44;;;;;;;16.17;9.90;;;;;;;;;;4980805;28;20057;-68
2021/04/07 06:57:10;;;;;;;16.55;9.70;;;;;;;;;;4981809;28;20026;-73
2021/04/07 06:59:37;;;;;;;16.00;10.00;;;;;;;;;;4980024;28;20030;-69
2021/04/07 07:02:04;;;;;;;19.95;11.85;;;;;;;;;;4980333;28;20077;-70
2021/04/07 07:04:30;;;;;;;16.75;10.48;;;;;;;;;;4984504;28;20039;-66
2021/04/07 07:06:57;;;;;;;15.95;10.15;;;;;;;;;;4979630;28;20034;-67
2021/04/07 07:09:23;;;;;;;16.50;9.82;;;;;;;;;;4980745;28;20038;-66
2021/04/07 07:11:50;;;;;;;16.17;9.10;;;;;;;;;;4982809;28;20112;-68
2021/04/07 07:14:20;;;;;;;13.25;8.60;;;;;;;;;;4981241;28;20029;-67
2021/04/07 07:16:49;;;;;;;16.27;9.90;;;;;;;;;;4979978;28;20796;-74
2021/04/07 07:19:22;;;;;;;14.85;9.55;;;;;;;;;;4975186;28;20059;-67
2021/04/07 07:21:52;;;;;;;15.20;9.95;;;;;;;;;;4973975;28;20035;-73
2021/04/07 07:24:30;;;;;;;18.48;11.18;;;;;;;;;;4975273;28;20058;-73
2021/04/07 07:26:56;;;;;;;13.65;9.13;;;;;;;;;;4975706;28;20105;-69
2021/04/07 07:29:30;;;;;;;17.40;9.13;;;;;;;;;;4968864;28;20065;-65
2021/04/07 07:31:59;;;;;;;15.88;9.10;;;;;;;;;;4976986;28;20027;-70
2021/04/07 07:34:26;;;;;;;14.93;9.30;;;;;;;;;;4972062;28;20057;-65
2021/04/07 07:36:52;;;;;;;13.02;8.70;;;;;;;;;;4971669;28;20023;-66
2021/04/07 07:39:28;;;;;;;13.20;8.38;;;;;;;;;;4975529;28;20498;-68
2021/04/07 07:41:58;;;;;;;14.63;8.57;;;;;;;;;;4978879;28;20035;-68
2021/04/07 07:44:25;;;;;;;15.77;9.00;;;;;;;;;;4980777;28;20037;-68
2021/04/07 07:47:02;;;;;;;12.40;8.85;;;;;;;;;;4978659;28;20062;-72
2021/04/07 07:49:28;;;;;;;13.45;8.48;;;;;;;;;;4983590;28;20038;-66
2021/04/07 07:51:55;;;;;;;14.00;9.05;;;;;;;;;;4975770;28;20030;-71
2021/04/07 07:54:21;;;;;;;11.98;8.57;;;;;;;;;;4979446;28;20038;-66
2021/04/07 07:56:49;;;;;;;13.63;8.23;;;;;;;;;;4978671;28;20056;-65
2021/04/07 07:59:35;;;;;;;11.05;7.85;;;;;;;;;;4971443;28;20113;-69
2021/04/07 08:02:01;;;;;;;16.02;9.10;;;;;;;;;;4977533;28;20039;-71
2021/04/07 08:04:27;;;;;;;14.95;9.20;;;;;;;;;;4979332;28;20034;-66
2021/04/07 08:06:53;;;;;;;14.10;8.63;;;;;;;;;;4978504;28;20501;-68
2021/04/07 08:09:19;;;;;;;12.50;8.18;;;;;;;;;;4979137;28;20057;-73
2021/04/07 08:11:46;;;;;;;13.23;8.75;;;;;;;;;;4976601;28;20019;-67
2021/04/07 08:14:16;;;;;;;15.48;8.85;;;;;;;;;;4976280;28;20026;-68
2021/04/07 08:16:46;;;;;;;13.13;7.97;;;;;;;;;;4978950;28;20033;-68
2021/04/07 08:19:13;;;;;;;12.80;8.55;;;;;;;;;;4977163;28;20082;-67
2021/04/07 08:21:39;;;;;;;12.73;8.70;;;;;;;;;;4976631;28;20050;-68
2021/04/07 08:24:08;;;;;;;12.75;8.63;;;;;;;;;;4977221;28;20022;-67
2021/04/07 08:26:37;;;;;;;13.30;8.95;;;;;;;;;;4978865;28;20026;-64
2021/04/07 08:29:05;;;;;;;12.68;9.35;;;;;;;;;;4976654;28;20078;-69
2021/04/07 08:31:31;;;;;;;15.23;9.57;;;;;;;;;;4977047;28;20065;-66
2021/04/07 08:33:58;;;;;;;14.70;9.52;;;;;;;;;;4980096;28;20089;-68
2021/04/07 08:36:27;;;;;;;13.23;9.30;;;;;;;;;;4978770;28;20035;-67
2021/04/07 08:39:04;;;;;;;14.65;9.55;;;;;;;;;;4981133;28;20018;-66
2021/04/07 08:41:31;;;;;;;16.55;9.88;;;;;;;;;;4982873;28;20072;-64
2021/04/07 08:43:59;;;;;;;11.98;8.82;;;;;;;;;;4981755;28;20097;-66
2021/04/07 08:46:27;;;;;;;14.25;9.40;;;;;;;;;;4980868;28;20093;-68
2021/04/07 08:48:53;;;;;;;14.13;9.57;;;;;;;;;;4980726;28;20030;-67
2021/04/07 08:51:22;;;;;;;17.30;9.45;;;;;;;;;;4984832;28;20042;-68
2021/04/07 08:53:51;;;;;;;11.93;8.68;;;;;;;;;;4989298;28;20025;-69
2021/04/07 08:56:23;;;;;;;11.25;8.60;;;;;;;;;;4985448;28;20126;-68
2021/04/07 08:58:50;;;;;;;15.02;9.73;;;;;;;;;;4980561;28;20429;-68
2021/04/07 09:01:21;;;;;;;13.93;8.38;;;;;;;;;;4981929;28;20114;-67
2021/04/07 09:03:47;;;;;;;11.02;8.68;;;;;;;;;;4978997;28;20029;-68
2021/04/07 09:06:13;;;;;;;13.45;9.23;;;;;;;;;;4983123;28;20050;-68
2021/04/07 09:08:39;;;;;;;13.48;8.57;;;;;;;;;;4982182;28;20031;-67
2021/04/07 09:11:05;;;;;;;16.33;9.07;;;;;;;;;;4982838;28;20035;-69
2021/04/07 09:13:35;;;;;;;14.25;8.50;;;;;;;;;;4984103;28;20061;-67
2021/04/07 09:16:04;;;;;;;13.20;8.77;;;;;;;;;;4984302;28;20106;-68
2021/04/07 09:18:40;;;;;;;14.93;9.55;;;;;;;;;;4982314;28;20133;-67
2021/04/07 09:21:08;;;;;;;17.60;10.93;;;;;;;;;;4982075;28;20031;-68
2021/04/07 09:23:35;;;;;;;13.48;9.05;;;;;;;;;;4982198;28;20469;-67
2021/04/07 09:26:14;;;;;;;13.07;8.63;;;;;;;;;;4981825;28;20023;-67
2021/04/07 09:28:42;;;;;;;11.77;8.73;;;;;;;;;;4982702;28;20034;-68
2021/04/07 09:31:11;;;;;;;13.27;9.20;;;;;;;;;;4981274;28;20031;-68
2021/04/07 09:33:38;;;;;;;12.27;9.20;;;;;;;;;;4981981;28;20038;-67
2021/04/07 09:36:04;;;;;;;14.05;10.23;;;;;;;;;;4983073;28;20035;-67
2021/04/07 09:38:31;;;;;;;13.05;8.93;;;;;;;;;;4981243;28;20026;-68
2021/04/07 09:41:11;;;;;;;15.00;9.05;;;;;;;;;;4975255;28;20913;-68
2021/04/07 09:43:37;;;;;;;13.13;9.05;;;;;;;;;;4973485;28;20035;-68
2021/04/07 09:46:05;;;;;;;12.25;8.68;;;;;;;;;;4979120;28;20022;-66
2021/04/07 09:48:50;;;;;;;12.70;8.60;;;;;;;;;;4975413;28;20081;-69
2021/04/07 09:51:16;;;;;;;12.10;8.80;;;;;;;;;;4976531;28;20050;-67
2021/04/07 09:53:43;;;;;;;12.50;8.35;;;;;;;;;;4982169;28;20446;-65
2021/04/07 09:56:09;;;;;;;11.63;8.57;;;;;;;;;;4985411;28;20014;-66
2021/04/07 09:58:44;;;;;;;12.82;9.30;;;;;;;;;;4989571;28;20035;-69
2021/04/07 10:01:12;;;;;;;11.52;8.43;;;;;;;;;;4981185;28;20029;-67
2021/04/07 10:03:43;;;;;;;12.93;9.10;;;;;;;;;;4985574;28;20030;-66
2021/04/07 10:06:17;;;;;;;12.23;9.63;;;;;;;;;;4989124;28;20034;-66
2021/04/07 10:08:43;;;;;;;14.18;9.32;;;;;;;;;;4981147;28;20031;-66
2021/04/07 10:11:09;;;;;;;12.95;9.30;;;;;;;;;;4989254;28;20037;-66
2021/04/07 10:13:35;;;;;;;13.25;9.00;;;;;;;;;;4992544;28;20477;-65
2021/04/07 10:16:12;;;;;;;12.50;8.32;;;;;;;;;;4992121;28;20037;-66
2021/04/07 10:18:39;;;;;;;11.55;8.48;;;;;;;;;;4987145;28;20037;-66
2021/04/07 10:21:12;;;;;;;10.55;8.70;;;;;;;;;;4989028;28;20038;-68
2021/04/07 10:23:39;;;;;;;12.23;8.13;;;;;;;;;;4971174;28;20037;-67
2021/04/07 10:26:05;;;;;;;12.68;7.88;;;;;;;;;;4970574;28;20129;-66
2021/04/07 10:28:32;;;;;;;13.55;8.68;;;;;;;;;;4980187;28;20050;-65
2021/04/07 10:30:58;;;;;;;12.68;8.38;;;;;;;;;;4980321;28;20089;-67
2021/04/07 10:33:27;;;;;;;10.65;7.50;;;;;;;;;;4980024;28;20061;-66
2021/04/07 10:36:00;;;;;;;12.15;7.80;;;;;;;;;;4981208;28;20133;-68
2021/04/07 10:38:36;;;;;;;10.25;7.25;;;;;;;;;;4978139;28;20119;-64
2021/04/07 10:41:03;;;;;;;10.85;7.45;;;;;;;;;;4978066;28;20030;-66
2021/04/07 10:43:30;;;;;;;11.35;7.13;;;;;;;;;;4984386;28;20038;-65
2021/04/07 10:46:06;;;;;;;12.40;7.57;;;;;;;;;;4980035;28;20157;-64
2021/04/07 10:48:33;;;;;;;11.98;7.70;;;;;;;;;;4973724;28;20053;-64
2021/04/07 10:50:59;;;;;;;13.82;7.95;;;;;;;;;;4973630;28;20390;-65
2021/04/07 10:53:33;;;;;;;12.25;7.70;;;;;;;;;;4973410;28;20431;-65
2021/04/07 10:56:00;;;;;;;12.13;7.60;;;;;;;;;;4975038;28;20019;-65
2021/04/07 10:58:27;;;;;;;10.23;7.22;;;;;;;;;;4973945;28;20102;-63
2021/04/07 11:00:54;;;;;;;10.68;6.60;;;;;;;;;;4971414;28;20102;-68
2021/04/07 11:03:29;;;;;;;10.57;7.40;;;;;;;;;;4978058;28;20049;-66
2021/04/07 11:05:56;;;;;;;10.57;6.82;;;;;;;;;;4980308;28;20030;-69
2021/04/07 11:08:22;;;;;;;10.88;7.13;;;;;;;;;;4980352;28;20090;-66
2021/04/07 11:10:49;;;;;;;10.38;6.93;;;;;;;;;;4980227;28;20046;-67
2021/04/07 11:13:16;;;;;;;11.15;7.03;;;;;;;;;;4980697;28;20026;-69
2021/04/07 11:15:43;;;;;;;10.98;6.50;;;;;;;;;;4969719;28;20023;-66
2021/04/07 11:18:09;;;;;;;11.63;6.93;;;;;;;;;;4975494;28;20026;-66
2021/04/07 11:20:39;;;;;;;10.07;6.90;;;;;;;;;;4988313;28;20049;-65
2021/04/07 11:23:05;;;;;;;9.90;6.88;;;;;;;;;;4988107;28;20415;-68
2021/04/07 11:25:32;;;;;;;10.80;6.68;;;;;;;;;;4984539;28;20030;-64
2021/04/07 11:27:58;;;;;;;9.15;6.47;;;;;;;;;;4985830;28;20037;-65
2021/04/07 11:30:26;;;;;;;10.70;6.75;;;;;;;;;;4982319;28;20043;-66
2021/04/07 11:32:58;;;;;;;12.30;8.18;;;;;;;;;;4979581;28;20057;-66
2021/04/07 11:37:58;;;;;;;16.83;9.15;;;;;;;;;;4980899;28;20019;-69
2021/04/07 11:43:11;;;;;;;10.13;6.60;;;;;;;;;;4984717;28;20433;-73
2021/04/07 11:45:37;;;;;;;8.35;4.65;;;;;;;;;;4983066;28;20385;-77
2021/04/07 11:48:04;;;;;;;10.70;5.70;;;;;;;;;;4975385;28;20019;-68
2021/04/07 11:50:30;;;;;;;10.02;6.35;;;;;;;;;;4980082;28;20034;-78
2021/04/07 11:52:56;;;;;;;8.98;5.82;;;;;;;;;;4981591;28;20026;-68
2021/04/07 11:55:22;;;;;;;12.75;7.15;;;;;;;;;;4979858;28;20023;-69
2021/04/07 11:57:48;;;;;;;13.80;7.57;;;;;;;;;;4979813;28;20026;-68
2021/04/07 12:00:15;;;;;;;8.45;6.25;;;;;;;;;;4983776;28;20030;-69
2021/04/07 12:02:46;;;;;;;8.68;5.55;;;;;;;;;;4981448;28;20402;-68
2021/04/07 12:05:14;;;;;;;9.48;5.53;;;;;;;;;;4982105;28;20027;-70
2021/04/07 12:07:40;;;;;;;7.88;5.25;;;;;;;;;;4972199;28;20031;-67
2021/04/07 12:10:07;;;;;;;8.00;5.38;;;;;;;;;;4982769;28;20109;-75
2021/04/07 12:12:33;;;;;;;9.63;5.50;;;;;;;;;;4982602;28;20098;-74
2021/04/07 12:14:59;;;;;;;8.52;5.30;;;;;;;;;;4986703;28;20508;-74
2021/04/07 12:17:25;;;;;;;8.82;5.47;;;;;;;;;;4983543;28;20057;-71
2021/04/07 12:19:51;;;;;;;8.48;5.40;;;;;;;;;;4982807;28;20026;-68
2021/04/07 12:22:17;;;;;;;10.35;5.60;;;;;;;;;;4982716;28;20037;-74
2021/04/07 12:24:43;;;;;;;10.65;5.43;;;;;;;;;;4983498;28;20526;-67
2021/04/07 12:27:10;;;;;;;8.32;5.18;;;;;;;;;;4991118;28;20030;-70
2021/04/07 12:29:36;;;;;;;10.43;5.85;;;;;;;;;;4992001;28;20108;-67
2021/04/07 12:32:02;;;;;;;6.80;4.70;;;;;;;;;;4993445;28;20026;-67
2021/04/07 12:34:28;;;;;;;8.00;5.00;;;;;;;;;;4991548;28;20120;-66
2021/04/07 12:36:57;;;;;;;8.77;5.15;;;;;;;;;;4992051;28;20030;-67
2021/04/07 12:39:25;;;;;;;7.95;4.95;;;;;;;;;;4993383;28;20117;-75
2021/04/07 12:41:54;;;;;;;11.63;6.07;;;;;;;;;;4993435;28;20022;-67
2021/04/07 12:44:20;;;;;;;7.05;5.25;;;;;;;;;;4993366;28;20053;-69
2021/04/07 12:46:46;;;;;;;11.07;5.18;;;;;;;;;;4993545;28;20022;-67
2021/04/07 12:49:12;;;;;;;7.05;4.32;;;;;;;;;;4992896;28;20029;-65
2021/04/07 12:51:39;;;;;;;10.40;5.30;;;;;;;;;;4991990;28;20023;-69
2021/04/07 12:54:05;;;;;;;8.30;5.10;;;;;;;;;;4987004;28;20026;-65
2021/04/07 12:56:31;;;;;;;9.65;5.28;;;;;;;;;;4981741;28;20465;-66
2021/04/07 12:58:57;;;;;;;7.63;5.05;;;;;;;;;;4980912;28;20321;-76
2021/04/07 13:01:23;;;;;;;7.53;4.30;;;;;;;;;;4982238;28;20109;-68
2021/04/07 13:03:50;;;;;;;8.30;4.32;;;;;;;;;;4978639;28;20026;-67
2021/04/07 13:06:16;;;;;;;12.07;5.28;;;;;;;;;;4978994;28;20690;-69
2021/04/07 13:08:43;;;;;;;11.48;5.60;;;;;;;;;;4983140;28;20053;-68
2021/04/07 13:11:09;;;;;;;9.00;4.82;;;;;;;;;;4982358;28;20038;-67
2021/04/07 13:13:35;;;;;;;7.45;4.90;;;;;;;;;;4980841;28;20038;-75
2021/04/07 13:16:01;;;;;;;8.50;4.43;;;;;;;;;;4983252;28;20057;-79
2021/04/07 13:18:27;;;;;;;8.25;4.28;;;;;;;;;;4987319;28;20026;-74
2021/04/07 13:23:49;;;;;;;13.88;5.35;;;;;;;;;;4955667;28;20085;-72
2021/04/07 13:26:15;;;;;;;11.77;5.95;;;;;;;;;;4962137;28;20074;-70
2021/04/07 13:28:41;;;;;;;11.70;4.63;;;;;;;;;;4952258;28;20047;-72
2021/04/07 13:31:09;;;;;;;7.38;4.38;;;;;;;;;;4947823;29;20497;-74
2021/04/07 13:34:10;;;;;;;7.95;4.47;;;;;;;;;;4963866;28;20414;-68
2021/04/07 13:36:31;;;;;;;6.50;4.25;;;;;;;;;;4958597;28;20054;-69
2021/04/07 13:44:05;;;;;;;8.32;4.40;;;;;;;;;;4961193;28;20055;-69
2021/04/07 13:46:31;;;;;;;9.00;4.25;;;;;;;;;;4959563;28;20046;-73
2021/04/07 13:48:58;;;;;;;13.00;5.03;;;;;;;;;;4961327;28;20129;-68
2021/04/07 13:51:24;;;;;;;8.02;4.85;;;;;;;;;;4961733;28;20038;-74
2021/04/07 13:53:51;;;;;;;10.10;4.68;;;;;;;;;;4963254;28;20050;-63
2021/04/07 13:59:09;;;;;;;9.98;4.00;;;;;;;;;;4933154;28;20066;-74
2021/04/07 14:01:36;;;;;;;15.50;6.00;;;;;;;;;;4981313;28;20041;-69
2021/04/07 14:04:02;;;;;;;15.48;6.22;;;;;;;;;;4983471;28;20057;-75
2021/04/07 14:06:28;;;;;;;21.50;7.10;;;;;;;;;;4980874;28;20487;-71
2021/04/07 14:08:56;;;;;;;8.18;5.03;;;;;;;;;;4980811;28;20034;-76
2021/04/07 14:11:24;;;;;;;9.32;4.75;;;;;;;;;;4977011;28;20026;-73
2021/04/07 14:13:51;;;;;;;7.72;4.13;;;;;;;;;;4972103;28;20114;-73
2021/04/07 14:16:17;;;;;;;7.60;4.55;;;;;;;;;;4972881;28;20098;-73
2021/04/07 14:18:43;;;;;;;6.00;3.72;;;;;;;;;;4974790;28;20061;-73
2021/04/07 14:21:09;;;;;;;6.78;4.00;;;;;;;;;;4975184;28;20034;-74
2021/04/07 14:23:35;;;;;;;9.85;4.72;;;;;;;;;;4979208;28;20078;-71
2021/04/07 14:26:05;;;;;;;11.90;4.75;;;;;;;;;;4976155;28;20365;-70
2021/04/07 14:28:31;;;;;;;26.27;6.50;;;;;;;;;;4978704;28;21981;-72
2021/04/07 14:30:57;;;;;;;6.38;3.70;;;;;;;;;;4978369;28;20035;-74
2021/04/07 14:33:24;;;;;;;18.13;5.22;;;;;;;;;;4976106;28;20046;-71
2021/04/07 14:35:50;;;;;;;14.95;4.88;;;;;;;;;;4977555;28;20028;-71
2021/04/07 14:38:17;;;;;;;12.20;5.93;;;;;;;;;;4977679;28;20114;-70
2021/04/07 14:40:44;;;;;;;17.63;6.13;;;;;;;;;;4976219;28;20035;-69
2021/04/07 14:43:10;;;;;;;15.68;6.82;;;;;;;;;;4980071;28;20031;-73
2021/04/07 14:45:39;;;;;;;14.63;6.03;;;;;;;;;;4979800;28;20062;-71
2021/04/07 14:48:06;;;;;;;19.60;5.82;;;;;;;;;;4976363;28;20058;-72
2021/04/07 14:50:35;;;;;;;7.78;3.90;;;;;;;;;;4979678;28;20057;-69
2021/04/07 14:53:01;;;;;;;6.35;3.67;;;;;;;;;;4981802;28;20469;-71
2021/04/07 14:55:27;;;;;;;13.18;4.22;;;;;;;;;;4978928;28;20128;-69